Time;durP1;ratioP1;P1;durP2;ratioP2;P2;SDS_P1;SDS_P2;PMS_P1;PMS_P2;Temp;Humidity;BMP_temperature;BMP_pressure;BME280_temperature;BME280_humidity;BME280_pressure;Samples;Min_cycle;Max_cycle;Signal;HPM_P1;HPM_P2
2022/06/10 00:00:53;;;;;;;5.73;2.53;;;15.40;99.90;;;;;;6159722;23;20420;-86
2022/06/10 00:06:06;;;;;;;7.00;2.40;;;15.30;99.90;;;;;;6165170;23;20499;-85
2022/06/10 00:08:37;;;;;;;4.77;2.43;;;15.30;99.90;;;;;;6161578;23;20446;-85
2022/06/10 00:11:06;;;;;;;8.33;3.10;;;15.30;99.90;;;;;;6159896;23;20436;-85
2022/06/10 00:13:36;;;;;;;5.30;2.50;;;15.20;99.90;;;;;;6159735;23;20755;-85
2022/06/10 00:16:04;;;;;;;5.20;2.40;;;15.20;99.90;;;;;;6158973;23;20433;-85
2022/06/10 00:18:33;;;;;;;6.37;2.70;;;15.10;99.90;;;;;;6158279;23;20412;-86
2022/06/10 00:21:01;;;;;;;4.43;2.70;;;15.20;99.90;;;;;;6158792;23;20419;-86
2022/06/10 00:23:28;;;;;;;4.33;2.20;;;15.10;99.90;;;;;;6162575;23;20397;-85
2022/06/10 00:25:56;;;;;;;3.90;2.50;;;15.10;99.90;;;;;;6161678;23;20401;-86
2022/06/10 00:28:23;;;;;;;4.30;2.30;;;15.00;99.90;;;;;;6172052;23;20881;-85
2022/06/10 00:30:50;;;;;;;5.77;2.83;;;15.10;99.90;;;;;;6163809;23;20485;-86
2022/06/10 00:33:18;;;;;;;6.93;2.50;;;15.10;99.90;;;;;;6160246;23;20387;-86
2022/06/10 00:35:45;;;;;;;6.90;2.20;;;15.00;99.90;;;;;;6160906;23;20474;-86
2022/06/10 00:38:12;;;;;;;6.30;2.63;;;15.00;99.90;;;;;;6158966;23;20386;-87
2022/06/10 00:40:41;;;;;;;7.37;2.73;;;14.90;99.90;;;;;;6162192;23;20504;-87
2022/06/10 00:43:14;;;;;;;6.37;2.60;;;14.80;99.90;;;;;;6157159;23;20422;-86
2022/06/10 00:45:59;;;;;;;6.37;2.67;;;14.80;99.90;;;;;;6159000;23;20487;-86
2022/06/10 00:48:32;;;;;;;9.70;3.10;;;14.80;99.90;;;;;;6164049;23;20402;-86
2022/06/10 00:51:03;;;;;;;4.80;2.93;;;14.80;99.90;;;;;;6169586;23;20413;-86
2022/06/10 00:53:34;;;;;;;6.50;3.00;;;14.90;99.90;;;;;;6163476;23;20497;-88
2022/06/10 00:56:05;;;;;;;6.23;3.00;;;14.80;99.90;;;;;;6160283;23;20450;-88
2022/06/10 00:58:40;;;;;;;6.33;2.50;;;14.80;99.90;;;;;;6182033;23;20401;-87
2022/06/10 01:01:08;;;;;;;8.70;3.10;;;14.80;99.90;;;;;;6181089;23;20409;-87
2022/06/10 01:03:35;;;;;;;6.73;3.33;;;14.90;99.90;;;;;;6159491;23;20525;-88
2022/06/10 01:06:02;;;;;;;9.97;3.47;;;14.70;99.90;;;;;;6157605;23;20436;-87
2022/06/10 01:08:29;;;;;;;5.53;2.30;;;14.60;99.90;;;;;;6156881;23;20405;-88
2022/06/10 01:11:14;;;;;;;6.50;2.67;;;14.60;99.90;;;;;;6156729;23;20418;-87
2022/06/10 01:13:53;;;;;;;4.77;2.30;;;14.60;99.90;;;;;;6160052;23;20389;-86
2022/06/10 01:16:29;;;;;;;5.87;2.80;;;14.70;99.90;;;;;;6163315;23;20517;-88
2022/06/10 01:19:22;;;;;;;5.67;2.63;;;14.60;99.90;;;;;;6158774;23;20416;-88
2022/06/10 01:22:20;;;;;;;5.80;2.33;;;14.60;99.90;;;;;;6164637;23;20396;-87
2022/06/10 01:25:22;;;;;;;5.13;2.50;;;14.60;99.90;;;;;;6161180;23;20474;-88
2022/06/10 01:28:13;;;;;;;6.40;2.77;;;14.50;99.90;;;;;;6151184;23;20437;-88
2022/06/10 01:31:09;;;;;;;5.53;2.60;;;14.40;99.90;;;;;;6164877;23;20735;-88
2022/06/10 01:33:45;;;;;;;4.50;2.30;;;14.40;99.90;;;;;;6158684;23;20467;-88
2022/06/10 01:36:20;;;;;;;5.03;2.93;;;14.20;99.90;;;;;;6160415;23;20964;-88
2022/06/10 01:38:53;;;;;;;4.73;2.50;;;14.20;99.90;;;;;;6176950;23;20425;-87
2022/06/10 01:41:30;;;;;;;4.30;2.53;;;14.20;99.90;;;;;;6159681;23;20376;-87
2022/06/10 01:44:08;;;;;;;6.10;3.20;;;14.10;99.90;;;;;;6159475;23;20439;-87
2022/06/10 01:46:40;;;;;;;5.20;2.83;;;14.10;99.90;;;;;;6159619;23;20489;-88
2022/06/10 01:49:12;;;;;;;4.50;3.00;;;14.10;99.90;;;;;;6162200;23;20413;-88
2022/06/10 01:51:49;;;;;;;6.07;3.03;;;14.10;99.90;;;;;;6159725;23;20382;-87
2022/06/10 01:54:25;;;;;;;3.80;2.30;;;14.10;99.90;;;;;;6159574;23;20415;-87
2022/06/10 01:56:56;;;;;;;8.23;2.60;;;14.10;99.90;;;;;;6168057;23;20353;-87
2022/06/10 01:59:28;;;;;;;6.50;2.80;;;14.00;99.90;;;;;;6184390;23;20410;-86
2022/06/10 02:02:00;;;;;;;7.27;3.13;;;14.00;99.90;;;;;;6184798;23;20401;-87
2022/06/10 02:04:32;;;;;;;4.27;2.70;;;13.90;99.90;;;;;;6178778;23;20503;-88
2022/06/10 02:07:03;;;;;;;5.17;3.03;;;13.90;99.90;;;;;;6162169;23;20860;-88
2022/06/10 02:09:34;;;;;;;6.93;2.90;;;13.90;99.90;;;;;;6160054;23;20389;-88
2022/06/10 02:12:10;;;;;;;5.97;2.60;;;13.90;99.90;;;;;;6166072;23;20411;-88
2022/06/10 02:14:41;;;;;;;8.60;3.00;;;13.90;99.90;;;;;;6167233;23;20455;-88
2022/06/10 02:17:12;;;;;;;4.93;2.97;;;13.80;99.90;;;;;;6171650;23;20402;-88
2022/06/10 02:19:43;;;;;;;4.80;2.93;;;13.80;99.90;;;;;;6172943;23;20501;-87
2022/06/10 02:22:15;;;;;;;6.60;2.73;;;13.80;99.90;;;;;;6184528;23;20397;-85
2022/06/10 02:24:47;;;;;;;5.10;2.63;;;13.80;99.90;;;;;;6183010;23;20404;-87
2022/06/10 02:27:19;;;;;;;6.00;3.10;;;13.90;99.90;;;;;;6175202;23;20404;-88
2022/06/10 02:29:52;;;;;;;4.33;3.07;;;14.00;99.90;;;;;;6160984;23;20492;-88
2022/06/10 02:32:21;;;;;;;5.00;2.77;;;14.00;99.90;;;;;;6159860;23;20490;-88
2022/06/10 02:34:48;;;;;;;10.33;3.30;;;13.90;99.90;;;;;;6159594;23;20440;-88
2022/06/10 02:37:21;;;;;;;4.87;2.43;;;13.90;99.90;;;;;;6158938;23;20748;-88
2022/06/10 02:39:57;;;;;;;8.03;3.30;;;13.90;99.90;;;;;;6160326;23;20467;-88
2022/06/10 02:42:31;;;;;;;5.47;2.70;;;13.90;99.90;;;;;;6158976;23;20390;-88
2022/06/10 02:45:04;;;;;;;4.80;3.17;;;13.90;99.90;;;;;;6159035;23;20440;-88
2022/06/10 02:47:40;;;;;;;7.77;3.30;;;13.90;99.90;;;;;;6157876;23;20391;-88
2022/06/10 02:50:08;;;;;;;8.77;3.77;;;13.80;99.90;;;;;;6157872;23;20884;-88
2022/06/10 02:52:37;;;;;;;5.77;3.33;;;13.70;99.90;;;;;;6156159;23;20508;-88
2022/06/10 02:55:06;;;;;;;5.00;2.90;;;13.70;99.90;;;;;;6163821;23;20575;-87
2022/06/10 03:03:19;;;;;;;8.17;3.50;;;13.60;99.90;;;;;;6198618;23;20347;-84
2022/06/10 03:05:54;;;;;;;6.87;3.03;;;13.60;99.90;;;;;;6194509;23;20436;-87
2022/06/10 03:08:26;;;;;;;5.83;3.13;;;13.60;99.90;;;;;;6171425;23;20436;-87
2022/06/10 03:11:09;;;;;;;11.50;3.20;;;13.60;99.90;;;;;;6161292;23;20433;-87
2022/06/10 03:13:49;;;;;;;5.03;3.30;;;13.60;99.90;;;;;;6162138;23;20450;-86
2022/06/10 03:16:40;;;;;;;4.60;2.80;;;13.60;99.90;;;;;;6161195;23;20500;-87
2022/06/10 03:19:20;;;;;;;4.50;2.50;;;13.60;99.90;;;;;;6161004;23;20428;-87
2022/06/10 03:21:58;;;;;;;7.37;2.83;;;13.60;99.90;;;;;;6161161;23;20372;-87
2022/06/10 03:24:35;;;;;;;7.27;3.40;;;13.60;99.90;;;;;;6160733;23;20403;-87
2022/06/10 03:27:07;;;;;;;5.47;2.73;;;13.60;99.90;;;;;;6161695;23;20376;-86
2022/06/10 03:29:47;;;;;;;5.00;3.30;;;13.50;99.90;;;;;;6160398;23;20475;-87
2022/06/10 03:32:19;;;;;;;8.13;3.30;;;13.50;99.90;;;;;;6160554;23;20397;-87
2022/06/10 03:34:50;;;;;;;7.03;3.03;;;13.50;99.90;;;;;;6160167;23;20435;-88
2022/06/10 03:37:19;;;;;;;5.90;3.20;;;13.50;99.90;;;;;;6160425;23;20372;-88
2022/06/10 03:39:52;;;;;;;6.00;2.80;;;13.50;99.90;;;;;;6160497;23;20402;-88
2022/06/10 03:42:20;;;;;;;6.10;3.33;;;13.40;99.90;;;;;;6163803;23;20405;-87
2022/06/10 03:44:51;;;;;;;7.13;3.30;;;13.40;99.90;;;;;;6182267;23;20433;-86
2022/06/10 03:47:20;;;;;;;5.63;2.73;;;13.40;99.90;;;;;;6174481;23;20376;-88
2022/06/10 03:49:57;;;;;;;5.90;3.23;;;13.40;99.90;;;;;;6159937;23;20412;-88
2022/06/10 03:52:27;;;;;;;13.03;3.27;;;13.50;99.90;;;;;;6159689;23;20378;-88
2022/06/10 03:54:54;;;;;;;6.70;3.70;;;13.50;99.90;;;;;;6159839;23;20502;-88
2022/06/10 03:57:21;;;;;;;5.33;3.70;;;13.40;99.90;;;;;;6160499;23;20439;-87
2022/06/10 03:59:48;;;;;;;11.33;3.67;;;13.50;99.90;;;;;;6159621;23;20395;-87
2022/06/10 04:02:16;;;;;;;5.90;3.57;;;13.40;99.90;;;;;;6160631;23;20875;-88
2022/06/10 04:04:44;;;;;;;6.10;3.00;;;13.40;99.90;;;;;;6160553;23;20448;-87
2022/06/10 04:07:15;;;;;;;5.90;3.50;;;13.30;99.90;;;;;;6159981;23;20882;-88
2022/06/10 04:09:42;;;;;;;6.87;3.50;;;13.40;99.90;;;;;;6164019;23;20398;-87
2022/06/10 04:12:09;;;;;;;7.87;3.43;;;13.40;99.90;;;;;;6161936;23;20767;-87
2022/06/10 04:14:37;;;;;;;5.67;3.50;;;13.40;99.90;;;;;;6176515;23;20383;-87
2022/06/10 04:17:05;;;;;;;7.27;3.77;;;13.50;99.90;;;;;;6166568;23;20451;-88
2022/06/10 04:19:31;;;;;;;6.17;3.57;;;13.50;99.90;;;;;;6161025;23;20497;-87
2022/06/10 04:21:58;;;;;;;8.27;4.47;;;13.50;99.90;;;;;;6168003;23;20453;-88
2022/06/10 04:24:27;;;;;;;8.33;4.13;;;13.40;99.90;;;;;;6175001;23;20424;-87
2022/06/10 04:26:54;;;;;;;5.60;2.97;;;13.50;99.90;;;;;;6180397;23;20389;-88
2022/06/10 04:29:21;;;;;;;5.13;2.60;;;13.50;99.90;;;;;;6184077;23;20433;-87
2022/06/10 04:31:48;;;;;;;6.90;3.60;;;13.60;99.90;;;;;;6184107;23;20404;-85
2022/06/10 04:34:15;;;;;;;6.40;3.33;;;13.70;99.90;;;;;;6179988;23;20388;-88
2022/06/10 04:36:42;;;;;;;7.80;3.20;;;13.80;99.90;;;;;;6166156;23;20741;-87
2022/06/10 04:39:10;;;;;;;7.50;3.47;;;13.80;99.90;;;;;;6160451;23;20419;-86
2022/06/10 04:41:38;;;;;;;7.97;3.67;;;13.80;99.90;;;;;;6159881;23;20448;-87
2022/06/10 04:44:05;;;;;;;6.70;4.00;;;13.90;99.90;;;;;;6159553;23;20448;-88
2022/06/10 04:46:34;;;;;;;7.60;3.40;;;13.90;99.90;;;;;;6160180;23;20491;-88
2022/06/10 04:49:02;;;;;;;6.77;3.37;;;14.00;99.90;;;;;;6160874;23;20455;-88
2022/06/10 04:51:29;;;;;;;6.33;3.57;;;14.10;99.90;;;;;;6178142;23;20388;-89
2022/06/10 04:53:55;;;;;;;8.53;3.30;;;14.20;99.90;;;;;;6160792;23;20460;-88
2022/06/10 04:56:22;;;;;;;6.27;3.60;;;14.30;99.90;;;;;;6158963;23;20545;-88
2022/06/10 04:58:51;;;;;;;7.97;3.50;;;14.40;99.90;;;;;;6162185;23;20416;-88
2022/06/10 05:01:17;;;;;;;6.93;3.50;;;14.50;99.90;;;;;;6159838;23;20423;-88
2022/06/10 05:03:44;;;;;;;6.73;3.23;;;14.50;99.90;;;;;;6160805;23;20414;-88
2022/06/10 05:06:11;;;;;;;9.07;4.20;;;14.60;99.90;;;;;;6166181;23;20411;-88
2022/06/10 05:08:38;;;;;;;6.97;3.13;;;14.70;99.90;;;;;;6162914;23;20481;-88
2022/06/10 05:11:07;;;;;;;6.53;3.57;;;14.70;99.90;;;;;;6162296;23;20400;-88
2022/06/10 05:13:34;;;;;;;7.60;3.07;;;14.70;99.90;;;;;;6160464;23;20904;-88
2022/06/10 05:16:02;;;;;;;7.23;3.53;;;14.80;99.90;;;;;;6159459;23;20451;-89
2022/06/10 05:18:29;;;;;;;9.20;3.80;;;14.90;99.90;;;;;;6183207;23;20383;-88
2022/06/10 05:20:56;;;;;;;6.50;2.93;;;15.00;99.90;;;;;;6183113;23;20403;-88
2022/06/10 05:23:25;;;;;;;9.83;3.77;;;15.10;99.90;;;;;;6179578;23;20462;-89
2022/06/10 05:25:53;;;;;;;4.70;2.80;;;15.20;99.90;;;;;;6163430;23;20490;-88
2022/06/10 05:28:21;;;;;;;7.40;3.47;;;15.30;99.90;;;;;;6161080;23;20803;-89
2022/06/10 05:30:48;;;;;;;6.30;2.83;;;15.40;99.90;;;;;;6159874;23;20417;-88
2022/06/10 05:33:16;;;;;;;7.63;3.53;;;15.50;99.90;;;;;;6161076;23;20390;-88
2022/06/10 05:35:44;;;;;;;6.93;3.50;;;15.50;99.90;;;;;;6161966;23;20484;-87
2022/06/10 05:38:14;;;;;;;10.07;3.47;;;15.70;99.90;;;;;;6161907;23;20504;-87
2022/06/10 05:40:41;;;;;;;7.10;3.50;;;15.80;99.90;;;;;;6160335;23;20397;-87
2022/06/10 05:43:13;;;;;;;6.37;3.23;;;15.80;99.90;;;;;;6160912;23;20415;-87
2022/06/10 05:45:40;;;;;;;5.70;2.87;;;15.90;99.90;;;;;;6161474;23;20422;-88
2022/06/10 05:48:08;;;;;;;5.77;3.60;;;15.90;99.90;;;;;;6171004;23;20498;-87
2022/06/10 05:50:39;;;;;;;6.70;3.30;;;15.90;99.90;;;;;;6170386;23;20468;-88
2022/06/10 05:53:08;;;;;;;5.23;3.03;;;16.00;99.90;;;;;;6161095;23;20416;-88
2022/06/10 05:55:36;;;;;;;9.73;3.97;;;16.10;99.90;;;;;;6161243;23;20458;-88
2022/06/10 05:58:03;;;;;;;5.70;2.93;;;16.30;99.90;;;;;;6162541;23;20480;-88
2022/06/10 06:00:32;;;;;;;9.90;3.93;;;16.30;99.90;;;;;;6173091;23;20407;-86
2022/06/10 06:02:59;;;;;;;8.70;3.13;;;16.50;99.90;;;;;;6182935;23;20406;-87
2022/06/10 06:05:28;;;;;;;7.70;3.00;;;16.60;99.90;;;;;;6173738;23;20459;-87
2022/06/10 06:07:57;;;;;;;6.33;2.73;;;16.60;99.90;;;;;;6162641;23;20424;-86
2022/06/10 06:10:26;;;;;;;9.13;3.00;;;16.60;99.90;;;;;;6162023;23;20425;-87
2022/06/10 06:12:54;;;;;;;5.40;3.03;;;16.70;99.90;;;;;;6159594;23;20443;-88
2022/06/10 06:15:21;;;;;;;8.27;3.63;;;16.90;99.90;;;;;;6158351;23;20424;-88
2022/06/10 06:17:50;;;;;;;7.13;3.07;;;17.00;99.90;;;;;;6158334;23;20452;-87
2022/06/10 06:20:18;;;;;;;7.03;2.87;;;17.00;99.90;;;;;;6160025;23;20400;-88
2022/06/10 06:22:46;;;;;;;6.90;3.00;;;16.90;99.90;;;;;;6165207;23;20398;-89
2022/06/10 06:25:16;;;;;;;7.03;2.97;;;16.90;99.90;;;;;;6179735;23;20427;-88
2022/06/10 06:27:44;;;;;;;6.03;3.10;;;17.00;99.90;;;;;;6178377;23;20397;-86
2022/06/10 06:30:17;;;;;;;7.47;2.63;;;17.00;99.90;;;;;;6184855;23;20399;-87
2022/06/10 06:32:43;;;;;;;10.43;2.90;;;17.00;99.90;;;;;;6173594;23;20491;-87
2022/06/10 06:35:11;;;;;;;9.20;2.90;;;17.10;99.90;;;;;;6165197;23;20438;-86
2022/06/10 06:37:39;;;;;;;6.27;2.70;;;17.10;99.90;;;;;;6179482;23;20420;-87
2022/06/10 06:40:07;;;;;;;7.60;3.53;;;17.30;99.90;;;;;;6163591;23;20418;-87
2022/06/10 06:42:36;;;;;;;5.93;2.77;;;17.40;99.90;;;;;;6161048;23;20422;-88
2022/06/10 06:45:04;;;;;;;9.50;3.43;;;17.50;99.90;;;;;;6161883;23;20534;-87
2022/06/10 06:47:31;;;;;;;7.60;3.20;;;17.70;99.90;;;;;;6163221;23;20433;-87
2022/06/10 06:49:59;;;;;;;7.10;3.60;;;17.80;99.90;;;;;;6168147;23;20438;-87
2022/06/10 06:52:28;;;;;;;11.30;3.70;;;17.80;99.90;;;;;;6179711;23;20403;-88
2022/06/10 06:55:06;;;;;;;6.60;3.10;;;17.80;99.90;;;;;;6181219;23;20414;-88
2022/06/10 06:57:34;;;;;;;7.40;3.63;;;17.90;99.90;;;;;;6166457;23;20465;-87
2022/06/10 07:00:14;;;;;;;8.07;3.80;;;17.80;99.90;;;;;;6168820;23;20416;-87
2022/06/10 07:02:48;;;;;;;8.13;3.53;;;17.80;99.90;;;;;;6182490;23;20404;-87
2022/06/10 07:05:15;;;;;;;9.63;3.27;;;17.90;99.90;;;;;;6182136;23;20432;-87
2022/06/10 07:07:42;;;;;;;5.40;3.00;;;18.00;99.90;;;;;;6168182;23;20442;-88
2022/06/10 07:10:11;;;;;;;9.77;3.70;;;18.00;99.90;;;;;;6163655;23;20494;-87
2022/06/10 07:12:40;;;;;;;4.87;2.63;;;18.00;99.90;;;;;;6167660;23;20428;-87
2022/06/10 07:15:07;;;;;;;7.33;3.20;;;18.00;99.90;;;;;;6161410;23;20431;-88
2022/06/10 07:17:34;;;;;;;8.60;3.90;;;18.10;99.90;;;;;;6163125;23;20625;-88
2022/06/10 07:20:01;;;;;;;7.30;3.03;;;18.20;99.90;;;;;;6165540;23;20502;-88
2022/06/10 07:22:28;;;;;;;8.23;3.70;;;18.20;99.90;;;;;;6174988;23;20437;-88
2022/06/10 07:24:55;;;;;;;9.53;4.20;;;18.20;99.90;;;;;;6172013;23;20432;-87
2022/06/10 07:27:22;;;;;;;7.47;3.70;;;18.30;99.90;;;;;;6171785;23;20418;-87
2022/06/10 07:29:51;;;;;;;13.73;3.93;;;18.40;99.90;;;;;;6168460;23;20499;-87
2022/06/10 07:32:18;;;;;;;5.90;3.37;;;18.50;99.90;;;;;;6168943;23;20419;-88
2022/06/10 07:34:45;;;;;;;6.17;3.13;;;18.50;99.90;;;;;;6177603;23;20439;-87
2022/06/10 07:37:12;;;;;;;10.13;3.13;;;18.40;99.90;;;;;;6180143;23;20428;-86
2022/06/10 07:39:39;;;;;;;6.23;4.10;;;18.40;99.90;;;;;;6166684;23;20419;-88
2022/06/10 07:42:06;;;;;;;7.77;3.27;;;18.50;99.90;;;;;;6163574;23;20506;-87
2022/06/10 07:44:35;;;;;;;8.03;3.40;;;18.60;99.90;;;;;;6164354;23;20440;-87
2022/06/10 07:47:08;;;;;;;7.97;3.60;;;18.70;99.90;;;;;;6164964;23;20411;-87
2022/06/10 07:49:35;;;;;;;9.00;3.30;;;18.80;99.90;;;;;;6163568;23;20517;-87
2022/06/10 07:52:03;;;;;;;5.17;3.10;;;18.90;99.90;;;;;;6175913;23;20487;-87
2022/06/10 07:54:30;;;;;;;7.20;3.67;;;19.00;99.90;;;;;;6181327;23;20411;-86
2022/06/10 07:56:57;;;;;;;8.17;3.67;;;19.00;99.90;;;;;;6164234;23;20513;-87
2022/06/10 07:59:24;;;;;;;11.73;3.40;;;19.10;99.90;;;;;;6164454;23;20411;-87
2022/06/10 08:01:52;;;;;;;10.60;3.80;;;19.20;99.90;;;;;;6174695;23;20447;-88
2022/06/10 08:04:21;;;;;;;8.67;3.40;;;19.40;99.90;;;;;;6179762;23;20403;-86
2022/06/10 08:06:49;;;;;;;9.80;4.27;;;19.40;99.90;;;;;;6173307;23;20480;-86
2022/06/10 08:09:20;;;;;;;7.03;4.03;;;19.50;99.90;;;;;;6177134;23;20408;-87
2022/06/10 08:11:48;;;;;;;9.33;3.73;;;19.60;99.90;;;;;;6177779;23;20431;-88
2022/06/10 08:14:15;;;;;;;9.93;3.03;;;19.80;99.90;;;;;;6165742;23;20870;-86
2022/06/10 08:16:42;;;;;;;10.73;3.80;;;19.80;99.90;;;;;;6162306;23;20479;-86
2022/06/10 08:19:09;;;;;;;6.03;3.40;;;19.70;99.90;;;;;;6170343;23;20430;-86
2022/06/10 08:24:23;;;;;;;7.43;2.90;;;19.60;99.90;;;;;;6181830;23;20378;-85
2022/06/10 08:26:50;;;;;;;8.30;3.33;;;19.80;99.90;;;;;;6181420;23;20420;-87
2022/06/10 08:29:17;;;;;;;9.87;3.87;;;19.70;99.90;;;;;;6172501;23;20430;-88
2022/06/10 08:31:44;;;;;;;8.93;3.37;;;19.80;99.90;;;;;;6163050;23;20419;-87
2022/06/10 08:34:11;;;;;;;7.57;3.23;;;19.70;99.90;;;;;;6172063;23;20441;-88
2022/06/10 08:36:41;;;;;;;10.30;3.80;;;19.80;99.90;;;;;;6159278;23;20499;-87
2022/06/10 08:39:08;;;;;;;10.97;3.40;;;19.80;99.90;;;;;;6160522;23;20470;-87
2022/06/10 08:41:49;;;;;;;9.17;2.97;;;19.90;99.90;;;;;;6159300;23;20693;-87
2022/06/10 08:44:29;;;;;;;5.97;2.53;;;19.90;99.90;;;;;;6163445;23;20706;-88
2022/06/10 08:47:20;;;;;;;8.00;3.20;;;19.80;99.90;;;;;;6164242;23;20491;-87
2022/06/10 08:50:23;;;;;;;5.00;2.37;;;19.60;99.90;;;;;;6161450;23;20898;-87
2022/06/10 08:53:07;;;;;;;7.20;2.70;;;19.70;99.90;;;;;;6161780;23;20489;-87
2022/06/10 08:55:52;;;;;;;8.83;2.50;;;19.80;99.30;;;;;;6163788;23;20483;-87
2022/06/10 08:58:22;;;;;;;8.23;3.03;;;19.90;99.00;;;;;;6192778;23;20504;-88
2022/06/10 09:00:53;;;;;;;5.60;3.20;;;20.00;99.30;;;;;;6194568;23;20415;-87
2022/06/10 09:03:23;;;;;;;16.10;9.93;;;20.20;98.50;;;;;;6194438;23;20387;-87
2022/06/10 09:05:54;;;;;;;6.03;2.73;;;20.30;98.20;;;;;;6181219;23;20416;-87
2022/06/10 09:08:26;;;;;;;11.87;4.20;;;20.30;96.90;;;;;;6164732;23;20392;-88
2022/06/10 09:10:57;;;;;;;10.33;3.13;;;20.20;96.10;;;;;;6166115;23;20455;-88
2022/06/10 09:13:36;;;;;;;5.60;2.93;;;20.30;96.70;;;;;;6170122;23;20404;-89
2022/06/10 09:16:13;;;;;;;7.47;3.37;;;20.40;98.00;;;;;;6165995;23;20771;-87
2022/06/10 09:18:51;;;;;;;8.70;3.07;;;20.60;98.70;;;;;;6163277;23;20763;-88
2022/06/10 09:21:26;;;;;;;6.73;3.40;;;20.70;98.20;;;;;;6166432;23;20364;-89
2022/06/10 09:23:59;;;;;;;12.37;3.20;;;20.70;97.40;;;;;;6164143;23;20407;-88
2022/06/10 09:26:32;;;;;;;10.30;3.00;;;20.70;97.50;;;;;;6165228;23;20439;-88
2022/06/10 09:28:59;;;;;;;11.77;5.47;;;20.70;97.50;;;;;;6164830;23;20400;-88
2022/06/10 09:31:50;;;;;;;9.60;6.60;;;20.70;97.40;;;;;;6163275;23;20455;-88
2022/06/10 09:34:30;;;;;;;9.80;3.83;;;20.80;97.40;;;;;;6163267;23;20415;-88
2022/06/10 09:37:05;;;;;;;7.30;3.60;;;20.90;97.50;;;;;;6178528;23;20430;-87
2022/06/10 09:42:49;;;;;;;7.87;3.07;;;21.10;96.90;;;;;;6167912;23;20447;-89
2022/06/10 09:45:23;;;;;;;8.80;3.40;;;21.20;96.90;;;;;;6166185;23;20415;-89
2022/06/10 09:48:08;;;;;;;4.73;2.40;;;21.30;96.80;;;;;;6163595;23;20392;-88
2022/06/10 09:50:44;;;;;;;7.37;3.13;;;21.30;96.60;;;;;;6164090;23;20577;-89
2022/06/10 09:53:33;;;;;;;7.80;3.20;;;21.30;96.80;;;;;;6163735;23;20478;-88
2022/06/10 09:56:25;;;;;;;9.47;3.37;;;21.20;96.20;;;;;;6158959;23;20478;-88
2022/06/10 09:59:15;;;;;;;4.80;2.90;;;21.00;95.50;;;;;;6167476;23;20420;-90
2022/06/10 10:01:56;;;;;;;5.80;2.70;;;20.90;96.10;;;;;;6174481;23;20450;-89
2022/06/10 10:04:47;;;;;;;10.07;3.30;;;20.90;96.40;;;;;;6183912;23;20411;-89
2022/06/10 10:07:23;;;;;;;5.67;3.00;;;21.00;96.30;;;;;;6183305;23;20490;-88
2022/06/10 10:10:16;;;;;;;6.67;3.43;;;21.00;96.20;;;;;;6185085;23;20396;-88
2022/06/10 10:12:52;;;;;;;10.73;8.63;;;21.00;96.60;;;;;;6183555;23;20419;-88
2022/06/10 10:15:29;;;;;;;6.63;3.50;;;21.30;96.50;;;;;;6178574;23;20435;-89
2022/06/10 10:18:14;;;;;;;9.60;3.57;;;21.50;96.40;;;;;;6172951;23;20933;-88
2022/06/10 10:20:56;;;;;;;8.03;3.00;;;21.50;95.90;;;;;;6177348;23;20404;-88
2022/06/10 10:23:31;;;;;;;8.67;3.73;;;21.60;95.60;;;;;;6172584;23;20403;-88
2022/06/10 10:25:58;;;;;;;5.60;2.90;;;21.70;95.40;;;;;;6170716;23;20490;-88
2022/06/10 10:28:31;;;;;;;6.53;3.37;;;21.90;94.80;;;;;;6172234;23;20415;-87
2022/06/10 10:31:03;;;;;;;8.70;2.90;;;22.10;94.20;;;;;;6179095;23;20876;-88
2022/06/10 10:33:30;;;;;;;7.47;2.87;;;22.30;93.30;;;;;;6167619;23;20380;-88
2022/06/10 10:36:02;;;;;;;6.00;2.50;;;22.40;92.50;;;;;;6166002;23;20737;-88
2022/06/10 10:38:33;;;;;;;6.30;2.80;;;22.30;92.00;;;;;;6167645;23;20462;-88
2022/06/10 10:41:12;;;;;;;6.17;3.00;;;22.40;92.00;;;;;;6167413;23;20411;-89
2022/06/10 10:43:44;;;;;;;6.70;2.70;;;22.50;91.50;;;;;;6168551;23;20407;-87
2022/06/10 10:46:35;;;;;;;6.03;2.90;;;22.40;91.40;;;;;;6171165;23;20439;-88
2022/06/10 10:49:20;;;;;;;6.07;2.83;;;22.50;91.30;;;;;;6167195;23;20411;-88
2022/06/10 10:51:50;;;;;;;4.87;2.20;;;22.60;91.30;;;;;;6168186;23;20404;-88
2022/06/10 10:54:25;;;;;;;5.90;2.40;;;22.20;91.00;;;;;;6177395;23;20404;-89
2022/06/10 10:56:55;;;;;;;8.27;2.67;;;22.10;91.40;;;;;;6174384;23;20439;-88
2022/06/10 10:59:33;;;;;;;5.53;2.90;;;22.10;91.60;;;;;;6166346;23;20447;-88
2022/06/10 11:02:05;;;;;;;7.00;2.70;;;22.40;91.70;;;;;;6164956;23;20411;-88
2022/06/10 11:04:36;;;;;;;6.87;3.37;;;22.70;91.10;;;;;;6165126;23;20380;-89
2022/06/10 11:07:18;;;;;;;4.90;2.90;;;22.90;91.50;;;;;;6166618;23;20450;-88
2022/06/10 11:09:47;;;;;;;6.20;2.60;;;23.00;91.30;;;;;;6164574;23;20396;-88
2022/06/10 11:12:20;;;;;;;8.07;3.03;;;22.80;91.30;;;;;;6162795;23;20475;-88
2022/06/10 11:15:00;;;;;;;5.80;2.90;;;22.90;91.50;;;;;;6163778;23;20407;-88
2022/06/10 11:17:28;;;;;;;10.70;2.90;;;23.00;91.10;;;;;;6165865;23;20406;-88
2022/06/10 11:19:58;;;;;;;6.23;2.90;;;23.20;90.60;;;;;;6165786;23;20759;-88
2022/06/10 11:22:36;;;;;;;6.50;3.13;;;23.30;90.40;;;;;;6163332;23;20419;-89
2022/06/10 11:25:26;;;;;;;10.27;3.00;;;23.30;90.00;;;;;;6162899;23;20416;-88
2022/06/10 11:28:01;;;;;;;8.93;3.07;;;23.40;89.10;;;;;;6163869;23;20411;-89
2022/06/10 11:30:38;;;;;;;7.53;2.77;;;23.40;87.60;;;;;;6163862;23;20411;-89
2022/06/10 11:33:07;;;;;;;7.57;3.10;;;23.50;86.60;;;;;;6163220;23;20426;-89
2022/06/10 11:35:37;;;;;;;4.60;2.73;;;23.60;86.00;;;;;;6163011;23;20412;-88
2022/06/10 11:38:07;;;;;;;6.87;2.90;;;23.50;84.90;;;;;;6170410;23;20443;-89
2022/06/10 11:40:41;;;;;;;4.70;2.03;;;23.50;84.30;;;;;;6164553;23;20415;-88
2022/06/10 11:43:16;;;;;;;5.40;2.67;;;23.60;83.70;;;;;;6162194;23;20464;-89
2022/06/10 11:45:51;;;;;;;6.10;2.60;;;23.60;83.80;;;;;;6162119;23;20445;-89
2022/06/10 11:48:28;;;;;;;4.80;2.70;;;23.70;83.90;;;;;;6164026;23;20382;-89
2022/06/10 11:51:01;;;;;;;6.70;2.93;;;23.80;83.20;;;;;;6164965;23;20839;-88
2022/06/10 11:53:39;;;;;;;8.07;2.77;;;23.70;82.60;;;;;;6162794;23;20396;-88
2022/06/10 12:01:57;;;;;;;7.60;2.83;;;23.20;83.50;;;;;;6164367;23;20411;-88
2022/06/10 12:04:29;;;;;;;6.30;2.60;;;23.10;83.50;;;;;;6168065;23;20376;-88
2022/06/10 12:07:01;;;;;;;5.47;2.60;;;23.10;83.10;;;;;;6166218;23;20427;-88
2022/06/10 12:09:32;;;;;;;4.63;1.87;;;23.20;82.90;;;;;;6165932;23;20403;-87
2022/06/10 12:12:04;;;;;;;7.00;2.70;;;23.20;83.40;;;;;;6181934;23;20391;-87
2022/06/10 12:14:36;;;;;;;7.43;2.30;;;23.30;83.10;;;;;;6170565;23;20396;-88
2022/06/10 12:17:12;;;;;;;4.17;1.90;;;23.40;82.90;;;;;;6169546;23;20480;-88
2022/06/10 12:19:45;;;;;;;6.73;3.50;;;23.30;82.00;;;;;;6165065;23;20451;-87
2022/06/10 12:22:13;;;;;;;5.00;2.30;;;23.30;81.80;;;;;;6165865;23;20408;-88
2022/06/10 12:24:41;;;;;;;6.17;2.27;;;23.50;81.50;;;;;;6171625;23;20423;-88
2022/06/10 12:27:16;;;;;;;6.17;2.63;;;23.70;81.70;;;;;;6165354;23;20419;-88
2022/06/10 12:29:51;;;;;;;6.00;2.63;;;23.90;81.80;;;;;;6166630;23;20406;-88
2022/06/10 12:32:27;;;;;;;7.47;2.80;;;24.10;81.30;;;;;;6165974;23;20391;-88
2022/06/10 12:34:58;;;;;;;6.77;2.90;;;24.20;80.50;;;;;;6165032;23;20399;-90
2022/06/10 12:37:38;;;;;;;7.23;2.70;;;24.30;79.50;;;;;;6165135;23;20415;-87
2022/06/10 12:40:12;;;;;;;6.53;2.60;;;24.30;79.30;;;;;;6163693;23;20395;-87
2022/06/10 12:42:46;;;;;;;5.47;2.30;;;24.40;77.80;;;;;;6161489;23;20847;-88
2022/06/10 12:45:21;;;;;;;4.37;2.50;;;24.50;78.20;;;;;;6164541;23;20455;-87
2022/06/10 12:47:55;;;;;;;5.43;2.67;;;24.50;77.80;;;;;;6172552;23;20433;-89
2022/06/10 12:50:27;;;;;;;4.90;2.70;;;24.60;77.40;;;;;;6164066;23;20387;-87
2022/06/10 12:53:28;;;;;;;6.13;2.90;;;24.50;78.50;;;;;;6170250;23;20390;-88
2022/06/10 12:55:56;;;;;;;5.40;2.07;;;24.70;77.70;;;;;;6181277;23;20431;-87
2022/06/10 12:58:46;;;;;;;4.43;2.40;;;24.80;76.00;;;;;;6181882;23;20519;-88
2022/06/10 13:01:19;;;;;;;9.00;2.43;;;24.70;75.00;;;;;;6174603;23;20406;-88
2022/06/10 13:03:49;;;;;;;6.43;2.60;;;24.70;74.50;;;;;;6178436;23;20392;-87
2022/06/10 13:06:49;;;;;;;5.70;2.23;;;24.70;73.80;;;;;;6178003;23;20432;-88
2022/06/10 13:09:33;;;;;;;8.90;2.60;;;24.30;74.90;;;;;;6166286;23;20440;-88
2022/06/10 13:12:02;;;;;;;5.67;2.50;;;24.20;76.40;;;;;;6167238;23;20376;-87
2022/06/10 13:14:47;;;;;;;7.03;2.40;;;24.50;76.10;;;;;;6165861;23;20478;-87
2022/06/10 13:17:21;;;;;;;6.30;2.30;;;24.60;74.70;;;;;;6164486;23;20439;-88
2022/06/10 13:20:19;;;;;;;7.80;2.27;;;24.70;74.50;;;;;;6165983;23;20491;-88
2022/06/10 13:23:14;;;;;;;5.30;2.10;;;24.80;74.00;;;;;;6117792;23;20415;-87
2022/06/10 13:25:43;;;;;;;5.67;2.97;;;24.70;74.00;;;;;;6174384;23;20431;-88
2022/06/10 13:28:27;;;;;;;4.93;2.20;;;25.00;73.70;;;;;;6173895;23;20407;-89
2022/06/10 13:31:15;;;;;;;4.40;2.60;;;25.10;73.10;;;;;;6170630;23;20396;-88
2022/06/10 13:34:00;;;;;;;5.27;2.93;;;25.20;72.90;;;;;;6176188;23;20380;-88